Time;durP1;ratioP1;P1;durP2;ratioP2;P2;SDS_P1;SDS_P2;PMS_P1;PMS_P2;Temp;Humidity;BMP_temperature;BMP_pressure;BME280_temperature;BME280_humidity;BME280_pressure;Samples;Min_cycle;Max_cycle;Signal;HPM_P1;HPM_P2
2022/04/02 00:01:28;;;;;;;38.63;20.97;;;;;;;;;;5093448;28;20457;-68
2022/04/02 00:03:57;;;;;;;39.83;23.10;;;;;;;;;;5092681;28;20451;-69
2022/04/02 00:06:25;;;;;;;40.70;22.07;;;;;;;;;;5093230;28;20443;-69
2022/04/02 00:08:52;;;;;;;40.90;22.30;;;;;;;;;;5092969;28;20473;-70
2022/04/02 00:11:19;;;;;;;38.93;21.27;;;;;;;;;;5092960;28;20451;-68
2022/04/02 00:13:46;;;;;;;22.93;11.77;;;;;;;;;;5092566;28;20788;-69
2022/04/02 00:16:13;;;;;;;35.57;15.90;;;;;;;;;;5092955;28;20482;-68
2022/04/02 00:18:42;;;;;;;36.77;21.30;;;;;;;;;;5092837;28;20471;-68
2022/04/02 00:21:11;;;;;;;40.37;20.40;;;;;;;;;;5092824;28;20459;-68
2022/04/02 00:23:40;;;;;;;26.63;16.03;;;;;;;;;;5092367;28;20466;-68
2022/04/02 00:26:08;;;;;;;37.87;23.03;;;;;;;;;;5092651;28;20447;-69
2022/04/02 00:28:36;;;;;;;32.60;19.50;;;;;;;;;;5092858;28;20561;-69
2022/04/02 00:31:03;;;;;;;41.87;22.70;;;;;;;;;;5092811;28;20453;-69
2022/04/02 00:33:30;;;;;;;27.63;14.23;;;;;;;;;;5092437;28;20450;-68
2022/04/02 00:35:57;;;;;;;31.97;15.93;;;;;;;;;;5092555;28;20513;-69
2022/04/02 00:38:26;;;;;;;38.90;18.03;;;;;;;;;;5096522;28;20474;-69
2022/04/02 00:40:53;;;;;;;43.77;24.00;;;;;;;;;;5099469;28;20874;-69
2022/04/02 00:43:24;;;;;;;43.77;22.80;;;;;;;;;;5099610;28;20446;-69
2022/04/02 00:45:51;;;;;;;49.67;24.80;;;;;;;;;;5099242;28;20439;-68
2022/04/02 00:48:19;;;;;;;36.40;18.07;;;;;;;;;;5099622;28;21069;-68
2022/04/02 00:50:46;;;;;;;41.00;20.97;;;;;;;;;;5099338;28;20443;-68
2022/04/02 00:53:14;;;;;;;41.10;24.23;;;;;;;;;;5097229;28;20457;-68
2022/04/02 00:55:43;;;;;;;54.90;26.27;;;;;;;;;;5098864;28;20485;-68
2022/04/02 00:58:11;;;;;;;39.50;22.30;;;;;;;;;;5099294;28;20463;-68
2022/04/02 01:00:39;;;;;;;41.20;21.97;;;;;;;;;;5099378;28;20793;-68
2022/04/02 01:03:07;;;;;;;48.53;27.03;;;;;;;;;;5099526;28;20454;-68
2022/04/02 01:05:35;;;;;;;53.73;25.60;;;;;;;;;;5098718;28;20549;-69
2022/04/02 01:08:04;;;;;;;44.47;24.10;;;;;;;;;;5099137;28;20830;-68
2022/04/02 01:10:31;;;;;;;46.37;23.70;;;;;;;;;;5099386;28;20869;-68
2022/04/02 01:12:59;;;;;;;48.17;25.13;;;;;;;;;;5099061;28;20456;-69
2022/04/02 01:15:27;;;;;;;50.97;25.80;;;;;;;;;;5098700;28;20574;-68
2022/04/02 01:17:54;;;;;;;35.07;18.73;;;;;;;;;;5098983;28;20466;-68
2022/04/02 01:20:21;;;;;;;49.70;26.27;;;;;;;;;;5099078;28;20446;-68
2022/04/02 01:22:50;;;;;;;39.43;21.80;;;;;;;;;;5098977;28;20461;-69
2022/04/02 01:25:17;;;;;;;32.43;17.93;;;;;;;;;;5098670;28;20446;-68
2022/04/02 01:27:44;;;;;;;47.67;24.93;;;;;;;;;;5099038;28;20467;-68
2022/04/02 01:30:13;;;;;;;44.83;21.70;;;;;;;;;;5099030;28;20963;-69
2022/04/02 01:32:40;;;;;;;37.63;21.17;;;;;;;;;;5099041;28;20460;-69
2022/04/02 01:35:08;;;;;;;48.73;26.70;;;;;;;;;;5098523;28;20461;-68
2022/04/02 01:37:35;;;;;;;45.23;24.40;;;;;;;;;;5099015;28;21020;-69
2022/04/02 01:40:04;;;;;;;41.00;22.33;;;;;;;;;;5099082;28;20458;-68
2022/04/02 01:42:31;;;;;;;38.90;21.23;;;;;;;;;;5098989;28;20511;-68
2022/04/02 01:44:58;;;;;;;35.47;21.40;;;;;;;;;;5098285;28;20442;-69
2022/04/02 01:47:25;;;;;;;41.50;19.73;;;;;;;;;;5098901;28;20815;-69
2022/04/02 01:49:52;;;;;;;41.57;21.33;;;;;;;;;;5096203;28;20446;-68
2022/04/02 01:52:20;;;;;;;24.67;12.17;;;;;;;;;;5093995;28;20458;-70
2022/04/02 01:54:48;;;;;;;31.07;16.67;;;;;;;;;;5095502;28;20567;-69
2022/04/02 01:57:17;;;;;;;25.90;15.30;;;;;;;;;;5095541;28;20482;-69
2022/04/02 01:59:47;;;;;;;31.03;17.10;;;;;;;;;;5095689;28;20968;-69
2022/04/02 02:02:15;;;;;;;39.00;20.90;;;;;;;;;;5095566;28;20477;-68
2022/04/02 02:04:42;;;;;;;43.50;24.77;;;;;;;;;;5095050;28;20495;-69
2022/04/02 02:07:09;;;;;;;35.90;22.03;;;;;;;;;;5095574;28;20450;-69
2022/04/02 02:09:37;;;;;;;39.83;22.70;;;;;;;;;;5095308;28;20549;-68
2022/04/02 02:12:04;;;;;;;20.20;12.07;;;;;;;;;;5095301;28;20447;-69
2022/04/02 02:14:33;;;;;;;35.07;17.70;;;;;;;;;;5094812;28;20454;-68
2022/04/02 02:17:00;;;;;;;21.13;11.07;;;;;;;;;;5095224;28;20497;-69
2022/04/02 02:19:27;;;;;;;35.10;18.17;;;;;;;;;;5095180;28;21012;-70
2022/04/02 02:21:54;;;;;;;38.17;21.40;;;;;;;;;;5095084;28;20529;-69
2022/04/02 02:24:21;;;;;;;39.10;20.10;;;;;;;;;;5094858;28;20451;-70
2022/04/02 02:26:48;;;;;;;36.20;17.90;;;;;;;;;;5094993;28;20446;-70
2022/04/02 02:29:15;;;;;;;40.30;22.83;;;;;;;;;;5095060;28;20498;-70
2022/04/02 02:31:44;;;;;;;36.63;18.87;;;;;;;;;;5095088;28;20966;-69
2022/04/02 02:36:57;;;;;;;36.87;20.50;;;;;;;;;;5094787;28;20501;-71
2022/04/02 02:39:24;;;;;;;29.00;14.80;;;;;;;;;;5094845;28;21006;-70
2022/04/02 02:41:51;;;;;;;34.87;19.13;;;;;;;;;;5094854;28;20454;-69
2022/04/02 02:44:18;;;;;;;30.60;19.77;;;;;;;;;;5094494;28;20794;-69
2022/04/02 02:46:46;;;;;;;40.20;21.17;;;;;;;;;;5094827;28;20450;-70
2022/04/02 02:49:13;;;;;;;23.63;14.63;;;;;;;;;;5094735;28;20463;-69
2022/04/02 02:51:40;;;;;;;35.40;17.43;;;;;;;;;;5094704;28;20462;-70
2022/04/02 02:54:08;;;;;;;21.63;18.30;;;;;;;;;;5092172;28;20505;-69
2022/04/02 02:56:35;;;;;;;35.37;16.77;;;;;;;;;;5094772;28;20482;-70
2022/04/02 02:59:02;;;;;;;16.93;10.40;;;;;;;;;;5094503;28;20863;-70
2022/04/02 03:01:29;;;;;;;33.53;16.30;;;;;;;;;;5094534;28;20443;-70
2022/04/02 03:03:58;;;;;;;33.00;19.10;;;;;;;;;;5093776;28;20808;-70
2022/04/02 03:06:26;;;;;;;36.70;19.13;;;;;;;;;;5094587;28;20839;-70
2022/04/02 03:08:53;;;;;;;33.27;19.20;;;;;;;;;;5094408;28;20474;-70
2022/04/02 03:11:20;;;;;;;16.23;9.00;;;;;;;;;;5094410;28;20508;-70
2022/04/02 03:13:47;;;;;;;20.37;12.10;;;;;;;;;;5093835;28;20458;-71
2022/04/02 03:16:15;;;;;;;29.83;18.77;;;;;;;;;;5094200;28;20489;-70
2022/04/02 03:18:42;;;;;;;30.83;15.97;;;;;;;;;;5094075;28;20892;-70
2022/04/02 03:21:10;;;;;;;27.27;16.10;;;;;;;;;;5094402;28;20458;-69
2022/04/02 03:23:37;;;;;;;16.60;11.73;;;;;;;;;;5093608;28;20512;-70
2022/04/02 03:26:04;;;;;;;30.73;16.87;;;;;;;;;;5093839;28;20458;-70
2022/04/02 03:28:32;;;;;;;26.90;17.40;;;;;;;;;;5094249;28;20475;-70
2022/04/02 03:30:59;;;;;;;24.70;12.40;;;;;;;;;;5094078;28;20490;-71
2022/04/02 03:33:27;;;;;;;35.03;21.07;;;;;;;;;;5093934;28;20931;-71
2022/04/02 03:35:54;;;;;;;38.70;16.83;;;;;;;;;;5093963;28;20446;-71
2022/04/02 03:38:22;;;;;;;34.27;19.33;;;;;;;;;;5093944;28;20590;-70
2022/04/02 03:40:49;;;;;;;21.33;12.83;;;;;;;;;;5094295;28;20457;-70
2022/04/02 03:43:17;;;;;;;40.23;18.73;;;;;;;;;;5093739;28;20450;-69
2022/04/02 03:45:44;;;;;;;21.47;10.93;;;;;;;;;;5093515;28;20489;-69
2022/04/02 03:48:11;;;;;;;28.57;16.30;;;;;;;;;;5093382;28;20470;-70
2022/04/02 03:50:38;;;;;;;18.93;10.90;;;;;;;;;;5093849;28;20458;-69
2022/04/02 03:53:05;;;;;;;18.13;9.77;;;;;;;;;;5091684;28;20482;-69
2022/04/02 03:55:33;;;;;;;32.20;17.33;;;;;;;;;;5093238;28;20443;-69
2022/04/02 03:58:00;;;;;;;35.63;16.87;;;;;;;;;;5093213;28;20495;-69
2022/04/02 04:00:27;;;;;;;33.73;18.97;;;;;;;;;;5093592;28;20454;-70
2022/04/02 04:02:55;;;;;;;27.27;13.40;;;;;;;;;;5093402;28;20451;-69
2022/04/02 04:05:23;;;;;;;35.17;16.57;;;;;;;;;;5093035;28;20951;-69
2022/04/02 04:07:50;;;;;;;23.90;12.77;;;;;;;;;;5093368;28;20502;-70
2022/04/02 04:10:17;;;;;;;20.13;11.03;;;;;;;;;;5093401;28;20927;-70
2022/04/02 04:12:45;;;;;;;35.93;16.43;;;;;;;;;;5092804;28;20442;-71
2022/04/02 04:15:12;;;;;;;32.17;14.70;;;;;;;;;;5092721;28;20811;-69
2022/04/02 04:17:41;;;;;;;27.07;12.40;;;;;;;;;;5093272;28;20495;-69
2022/04/02 04:20:10;;;;;;;11.73;7.23;;;;;;;;;;5093267;28;20830;-69
2022/04/02 04:22:38;;;;;;;40.97;19.67;;;;;;;;;;5093160;28;20466;-69
2022/04/02 04:25:09;;;;;;;32.60;12.57;;;;;;;;;;5092733;28;20465;-70
2022/04/02 04:27:36;;;;;;;22.07;11.20;;;;;;;;;;5093093;28;20849;-71
2022/04/02 04:30:05;;;;;;;29.83;14.63;;;;;;;;;;5093106;28;20454;-70
2022/04/02 04:32:33;;;;;;;16.80;10.73;;;;;;;;;;5093411;28;20474;-70
2022/04/02 04:35:00;;;;;;;26.60;12.20;;;;;;;;;;5092924;28;20454;-69
2022/04/02 04:37:27;;;;;;;30.97;16.37;;;;;;;;;;5093253;28;20493;-70
2022/04/02 04:39:55;;;;;;;43.57;21.47;;;;;;;;;;5093262;28;20451;-71
2022/04/02 04:42:22;;;;;;;30.97;16.23;;;;;;;;;;5093289;28;20951;-71
2022/04/02 04:44:49;;;;;;;36.50;18.10;;;;;;;;;;5092695;28;20462;-70
2022/04/02 04:47:17;;;;;;;28.47;13.90;;;;;;;;;;5092865;28;20944;-69
2022/04/02 04:49:44;;;;;;;34.50;17.27;;;;;;;;;;5093054;28;20471;-69
2022/04/02 04:52:12;;;;;;;42.03;18.07;;;;;;;;;;5091879;28;20451;-70
2022/04/02 04:54:39;;;;;;;27.30;15.30;;;;;;;;;;5092276;28;20450;-69
2022/04/02 04:57:06;;;;;;;39.93;18.97;;;;;;;;;;5092959;28;20482;-70
2022/04/02 04:59:33;;;;;;;30.00;16.50;;;;;;;;;;5092969;28;20470;-70
2022/04/02 05:02:00;;;;;;;15.93;7.47;;;;;;;;;;5093326;28;20962;-70
2022/04/02 05:04:28;;;;;;;24.43;14.37;;;;;;;;;;5092778;28;20473;-71
2022/04/02 05:06:55;;;;;;;29.00;17.50;;;;;;;;;;5092869;28;20473;-71
2022/04/02 05:09:22;;;;;;;29.57;17.10;;;;;;;;;;5092801;28;20470;-71
2022/04/02 05:11:50;;;;;;;26.10;15.53;;;;;;;;;;5093005;28;20470;-71
2022/04/02 05:14:17;;;;;;;32.10;19.77;;;;;;;;;;5092441;28;20461;-70
2022/04/02 05:16:44;;;;;;;32.57;18.07;;;;;;;;;;5092872;28;20958;-71
2022/04/02 05:19:12;;;;;;;31.23;18.03;;;;;;;;;;5092668;28;20997;-71
2022/04/02 05:21:40;;;;;;;31.13;16.57;;;;;;;;;;5092572;28;20948;-70
2022/04/02 05:24:08;;;;;;;25.30;11.50;;;;;;;;;;5092093;28;20451;-70
2022/04/02 05:26:35;;;;;;;28.70;13.37;;;;;;;;;;5096470;28;20446;-69
2022/04/02 05:29:02;;;;;;;38.20;19.00;;;;;;;;;;5096127;28;20458;-70
2022/04/02 05:31:29;;;;;;;50.53;28.00;;;;;;;;;;5096464;28;20951;-69
2022/04/02 05:33:56;;;;;;;33.93;19.43;;;;;;;;;;5095924;28;20448;-70
2022/04/02 05:36:23;;;;;;;20.73;14.27;;;;;;;;;;5096007;28;20455;-70
2022/04/02 05:38:52;;;;;;;26.53;16.33;;;;;;;;;;5095909;28;20490;-70
2022/04/02 05:41:19;;;;;;;31.87;17.47;;;;;;;;;;5096238;28;20451;-70
2022/04/02 05:43:46;;;;;;;36.67;18.10;;;;;;;;;;5095657;28;20969;-70
2022/04/02 05:46:13;;;;;;;32.63;19.37;;;;;;;;;;5095926;28;20462;-70
2022/04/02 05:48:40;;;;;;;36.87;18.10;;;;;;;;;;5095846;28;20467;-72
2022/04/02 05:51:08;;;;;;;34.77;18.97;;;;;;;;;;5095740;28;20465;-71
2022/04/02 05:53:35;;;;;;;32.23;19.20;;;;;;;;;;5093993;28;20948;-70
2022/04/02 05:56:04;;;;;;;32.83;19.13;;;;;;;;;;5095867;28;20454;-70
2022/04/02 05:58:31;;;;;;;19.73;10.80;;;;;;;;;;5095610;28;20494;-70
2022/04/02 06:00:58;;;;;;;26.13;15.83;;;;;;;;;;5095709;28;20970;-72
2022/04/02 06:03:25;;;;;;;38.60;14.50;;;;;;;;;;5095379;28;20450;-71
2022/04/02 06:05:52;;;;;;;29.63;16.47;;;;;;;;;;5095349;28;20459;-71
2022/04/02 06:08:19;;;;;;;31.13;16.23;;;;;;;;;;5095563;28;20466;-70
2022/04/02 06:10:47;;;;;;;34.43;15.60;;;;;;;;;;5095572;28;20462;-70
2022/04/02 06:13:15;;;;;;;34.37;18.73;;;;;;;;;;5095420;28;20458;-70
2022/04/02 06:15:42;;;;;;;38.10;17.33;;;;;;;;;;5094977;28;20446;-70
2022/04/02 06:18:11;;;;;;;23.67;13.67;;;;;;;;;;5095254;28;20494;-70
2022/04/02 06:20:39;;;;;;;25.00;12.70;;;;;;;;;;5095568;28;20516;-69
2022/04/02 06:23:06;;;;;;;21.70;9.60;;;;;;;;;;5095574;28;20936;-70
2022/04/02 06:25:34;;;;;;;29.03;15.73;;;;;;;;;;5094723;28;20496;-69
2022/04/02 06:28:01;;;;;;;25.40;13.73;;;;;;;;;;5094996;28;20466;-69
2022/04/02 06:30:30;;;;;;;20.10;12.40;;;;;;;;;;5095131;28;20960;-69
2022/04/02 06:32:57;;;;;;;28.10;15.77;;;;;;;;;;5094961;28;20940;-69
2022/04/02 06:35:24;;;;;;;19.07;10.93;;;;;;;;;;5094057;28;20974;-70
2022/04/02 06:37:53;;;;;;;32.67;17.93;;;;;;;;;;5094848;28;20524;-70
2022/04/02 06:40:20;;;;;;;40.43;21.90;;;;;;;;;;5095090;28;20868;-70
2022/04/02 06:42:47;;;;;;;31.00;19.03;;;;;;;;;;5094902;28;20788;-72
2022/04/02 06:45:15;;;;;;;27.87;13.80;;;;;;;;;;5094190;28;20455;-71
2022/04/02 06:47:43;;;;;;;34.03;15.37;;;;;;;;;;5094627;28;20470;-70
2022/04/02 06:50:11;;;;;;;30.57;14.03;;;;;;;;;;5094837;28;20457;-70
2022/04/02 06:52:39;;;;;;;39.30;17.83;;;;;;;;;;5093169;28;20947;-70
2022/04/02 06:55:08;;;;;;;47.43;22.80;;;;;;;;;;5094092;28;20894;-71
2022/04/02 06:57:35;;;;;;;24.70;13.33;;;;;;;;;;5094351;28;21064;-71
2022/04/02 07:00:03;;;;;;;31.40;17.70;;;;;;;;;;5094439;28;20525;-70
2022/04/02 07:02:30;;;;;;;26.70;16.37;;;;;;;;;;5094518;28;20455;-70
2022/04/02 07:04:59;;;;;;;22.37;14.80;;;;;;;;;;5093859;28;20447;-70
2022/04/02 07:07:26;;;;;;;21.53;11.87;;;;;;;;;;5094347;28;20458;-70
2022/04/02 07:09:53;;;;;;;22.70;13.60;;;;;;;;;;5094258;28;20450;-70
2022/04/02 07:12:20;;;;;;;18.83;11.37;;;;;;;;;;5094361;28;20477;-70
2022/04/02 07:14:47;;;;;;;19.53;12.90;;;;;;;;;;5093762;28;20455;-71
2022/04/02 07:17:14;;;;;;;22.50;12.47;;;;;;;;;;5094110;28;20793;-69
2022/04/02 07:19:42;;;;;;;27.07;14.77;;;;;;;;;;5094077;28;20473;-69
2022/04/02 07:22:11;;;;;;;21.07;13.90;;;;;;;;;;5093945;28;20982;-70
2022/04/02 07:24:39;;;;;;;31.17;16.33;;;;;;;;;;5093387;28;20450;-71
2022/04/02 07:27:07;;;;;;;30.17;17.90;;;;;;;;;;5069701;28;20458;-70
2022/04/02 07:29:34;;;;;;;25.57;15.17;;;;;;;;;;5072369;28;20468;-71
2022/04/02 07:32:01;;;;;;;29.93;15.30;;;;;;;;;;5072057;28;20456;-70
2022/04/02 07:34:29;;;;;;;36.80;16.00;;;;;;;;;;5071487;28;20899;-70
2022/04/02 07:36:59;;;;;;;26.97;14.53;;;;;;;;;;5071615;28;20448;-70
2022/04/02 07:39:33;;;;;;;23.93;15.20;;;;;;;;;;5072041;28;20491;-70
2022/04/02 07:42:03;;;;;;;30.63;16.77;;;;;;;;;;5071984;28;20451;-70
2022/04/02 07:44:32;;;;;;;31.10;18.07;;;;;;;;;;5071593;28;20447;-71
2022/04/02 07:47:00;;;;;;;35.07;17.80;;;;;;;;;;5070661;28;20455;-71
2022/04/02 07:49:28;;;;;;;25.43;17.73;;;;;;;;;;5071637;28;20463;-71
2022/04/02 07:51:56;;;;;;;30.37;16.40;;;;;;;;;;5071466;28;20451;-70
2022/04/02 07:54:26;;;;;;;27.03;16.40;;;;;;;;;;5069127;28;20452;-70
2022/04/02 07:56:58;;;;;;;27.30;14.77;;;;;;;;;;5071707;28;20459;-70
2022/04/02 07:59:28;;;;;;;31.63;15.57;;;;;;;;;;5071740;28;20569;-70
2022/04/02 08:01:57;;;;;;;29.43;14.63;;;;;;;;;;5071284;28;20964;-69
2022/04/02 08:04:26;;;;;;;27.43;13.93;;;;;;;;;;5071183;28;21015;-69
2022/04/02 08:06:54;;;;;;;30.50;16.10;;;;;;;;;;5071442;28;20919;-70
2022/04/02 08:09:21;;;;;;;26.93;15.20;;;;;;;;;;5071201;28;20479;-71
2022/04/02 08:11:49;;;;;;;37.17;16.50;;;;;;;;;;5071505;28;20451;-71
2022/04/02 08:14:19;;;;;;;27.60;15.30;;;;;;;;;;5070902;28;20464;-70
2022/04/02 08:16:46;;;;;;;21.00;13.10;;;;;;;;;;5070721;28;20554;-69
2022/04/02 08:19:14;;;;;;;22.23;13.07;;;;;;;;;;5071302;28;20496;-68
2022/04/02 08:21:41;;;;;;;24.10;13.87;;;;;;;;;;5071417;28;20549;-69
2022/04/02 08:24:08;;;;;;;23.83;11.83;;;;;;;;;;5070448;28;20826;-69
2022/04/02 08:26:39;;;;;;;23.60;14.70;;;;;;;;;;5071228;28;20838;-69
2022/04/02 08:29:11;;;;;;;70.00;35.47;;;;;;;;;;5071186;28;20470;-70
2022/04/02 08:31:49;;;;;;;25.30;15.57;;;;;;;;;;5070821;28;20833;-70
2022/04/02 08:34:19;;;;;;;33.43;14.17;;;;;;;;;;5070795;28;20447;-70
2022/04/02 08:36:52;;;;;;;24.93;12.20;;;;;;;;;;5071071;28;20836;-69
2022/04/02 08:39:22;;;;;;;23.40;13.87;;;;;;;;;;5068674;28;20535;-71
2022/04/02 08:42:02;;;;;;;26.43;13.63;;;;;;;;;;5072624;28;20447;-70
2022/04/02 08:45:01;;;;;;;16.87;12.23;;;;;;;;;;5071789;28;20462;-70
2022/04/02 08:47:41;;;;;;;21.53;12.30;;;;;;;;;;5070544;28;20969;-70
2022/04/02 08:50:10;;;;;;;18.63;13.47;;;;;;;;;;5075541;28;20460;-70
2022/04/02 08:52:49;;;;;;;16.40;11.93;;;;;;;;;;5081896;28;20473;-70
2022/04/02 08:55:17;;;;;;;20.23;12.73;;;;;;;;;;5071419;28;20475;-70
2022/04/02 08:57:52;;;;;;;27.13;24.10;;;;;;;;;;5071720;28;20486;-70
2022/04/02 09:00:24;;;;;;;30.20;13.37;;;;;;;;;;5084377;28;20476;-70
2022/04/02 09:03:10;;;;;;;21.17;13.10;;;;;;;;;;5087444;28;20501;-70
2022/04/02 09:05:49;;;;;;;19.63;13.97;;;;;;;;;;5089344;28;20513;-69
2022/04/02 09:08:38;;;;;;;23.53;13.37;;;;;;;;;;5087451;28;21067;-71
2022/04/02 09:11:20;;;;;;;25.73;15.37;;;;;;;;;;5086539;28;20474;-72
2022/04/02 09:13:57;;;;;;;25.57;11.50;;;;;;;;;;5074405;28;21489;-71
2022/04/02 09:16:27;;;;;;;15.83;10.90;;;;;;;;;;5075040;28;20904;-71
2022/04/02 09:19:05;;;;;;;24.37;12.47;;;;;;;;;;5073891;28;20494;-71
2022/04/02 09:21:36;;;;;;;20.97;11.77;;;;;;;;;;5074384;28;20920;-70
2022/04/02 09:24:05;;;;;;;18.30;13.80;;;;;;;;;;5074587;28;20464;-71
2022/04/02 09:26:51;;;;;;;22.13;10.90;;;;;;;;;;5074311;28;20451;-71
2022/04/02 09:29:18;;;;;;;16.37;11.57;;;;;;;;;;5074970;28;20467;-71
2022/04/02 09:32:12;;;;;;;30.87;14.70;;;;;;;;;;5074555;28;20889;-71
2022/04/02 09:34:58;;;;;;;18.70;11.57;;;;;;;;;;5049478;28;20458;-70
2022/04/02 09:37:46;;;;;;;25.33;15.67;;;;;;;;;;5074795;28;20447;-70
2022/04/02 09:40:14;;;;;;;23.20;12.53;;;;;;;;;;5074784;28;20490;-70
2022/04/02 09:42:43;;;;;;;19.73;12.07;;;;;;;;;;5073965;28;20480;-70
2022/04/02 09:45:12;;;;;;;18.83;12.37;;;;;;;;;;5074472;28;20554;-70
2022/04/02 09:47:50;;;;;;;26.87;11.50;;;;;;;;;;5074971;28;20453;-70
2022/04/02 09:50:18;;;;;;;21.87;11.07;;;;;;;;;;5074067;28;20466;-69
2022/04/02 09:52:47;;;;;;;19.17;12.20;;;;;;;;;;5074617;28;20460;-70
2022/04/02 09:55:15;;;;;;;15.30;10.13;;;;;;;;;;5073805;28;20803;-69
2022/04/02 09:57:52;;;;;;;17.17;12.50;;;;;;;;;;5081573;28;20477;-69
2022/04/02 10:00:20;;;;;;;21.93;13.77;;;;;;;;;;5095513;28;20563;-69
2022/04/02 10:03:02;;;;;;;14.93;11.87;;;;;;;;;;5095582;28;20462;-70
2022/04/02 10:05:35;;;;;;;56.37;20.63;;;;;;;;;;5095762;28;20541;-70
2022/04/02 10:08:05;;;;;;;23.93;14.90;;;;;;;;;;5095800;28;20467;-69
2022/04/02 10:10:32;;;;;;;26.57;17.77;;;;;;;;;;5092346;28;20451;-69
2022/04/02 10:13:00;;;;;;;23.27;15.00;;;;;;;;;;5095275;28;20944;-70
2022/04/02 10:15:27;;;;;;;24.60;17.30;;;;;;;;;;5095115;28;20503;-70
2022/04/02 10:17:54;;;;;;;18.60;13.30;;;;;;;;;;5095499;28;20481;-70
2022/04/02 10:20:28;;;;;;;15.87;13.40;;;;;;;;;;5095623;28;20505;-70
2022/04/02 10:23:02;;;;;;;21.43;13.40;;;;;;;;;;5095451;28;20466;-70
2022/04/02 10:25:34;;;;;;;16.70;10.90;;;;;;;;;;5095615;28;20450;-70
2022/04/02 10:28:03;;;;;;;12.97;8.47;;;;;;;;;;5095800;28;20482;-70
2022/04/02 10:30:33;;;;;;;26.07;12.43;;;;;;;;;;5095865;28;20446;-70
2022/04/02 10:33:26;;;;;;;36.10;18.27;;;;;;;;;;5095566;28;20461;-70
2022/04/02 10:35:50;;;;;;;23.40;12.40;;;;;;;;;;5094949;28;20451;-71
2022/04/02 10:38:25;;;;;;;14.23;9.70;;;;;;;;;;5095185;28;20527;-71
2022/04/02 10:40:54;;;;;;;20.87;12.33;;;;;;;;;;5095282;28;20450;-71
2022/04/02 10:43:31;;;;;;;23.53;13.10;;;;;;;;;;5095368;28;20451;-71
2022/04/02 10:46:00;;;;;;;20.47;13.20;;;;;;;;;;5095157;28;20446;-71
2022/04/02 10:48:29;;;;;;;23.83;13.63;;;;;;;;;;5095147;28;20853;-70
2022/04/02 10:50:56;;;;;;;21.53;13.17;;;;;;;;;;5094788;28;20454;-71
2022/04/02 10:53:24;;;;;;;23.80;14.33;;;;;;;;;;5075635;28;20463;-71
2022/04/02 10:55:58;;;;;;;17.67;10.90;;;;;;;;;;5074246;28;20462;-71
2022/04/02 10:58:26;;;;;;;16.33;12.27;;;;;;;;;;5074688;28;20972;-71
2022/04/02 11:00:56;;;;;;;20.50;13.37;;;;;;;;;;5074824;28;20851;-72
2022/04/02 11:03:30;;;;;;;28.60;12.80;;;;;;;;;;5074502;28;20451;-71
2022/04/02 11:05:58;;;;;;;26.03;13.07;;;;;;;;;;5074608;28;20509;-71
2022/04/02 11:08:30;;;;;;;14.57;10.97;;;;;;;;;;5074697;28;20525;-71
2022/04/02 11:10:59;;;;;;;21.00;11.70;;;;;;;;;;5074703;28;20816;-72
2022/04/02 11:13:32;;;;;;;17.43;11.80;;;;;;;;;;5074516;28;20965;-71
2022/04/02 11:16:00;;;;;;;15.77;11.20;;;;;;;;;;5075111;28;20482;-71
2022/04/02 11:18:27;;;;;;;26.30;11.90;;;;;;;;;;5074940;28;20479;-71
2022/04/02 11:21:01;;;;;;;157.30;98.07;;;;;;;;;;5074553;28;20462;-71
2022/04/02 11:23:38;;;;;;;132.93;79.30;;;;;;;;;;5073346;28;20470;-73
2022/04/02 11:26:05;;;;;;;29.70;19.60;;;;;;;;;;5073677;28;20451;-71
2022/04/02 11:28:43;;;;;;;24.83;16.73;;;;;;;;;;5073738;28;20468;-72
2022/04/02 11:31:12;;;;;;;21.00;15.90;;;;;;;;;;5073770;28;20459;-73
2022/04/02 11:33:51;;;;;;;19.50;14.47;;;;;;;;;;5073441;28;20444;-71
2022/04/02 11:36:23;;;;;;;23.30;19.43;;;;;;;;;;5073698;28;20477;-71
2022/04/02 11:38:52;;;;;;;19.53;14.30;;;;;;;;;;5073426;28;20839;-73
2022/04/02 11:41:21;;;;;;;18.73;11.73;;;;;;;;;;5073752;28;20456;-71
2022/04/02 11:43:51;;;;;;;31.17;15.13;;;;;;;;;;5073096;28;21028;-72
2022/04/02 11:46:20;;;;;;;20.10;11.80;;;;;;;;;;5073635;28;20445;-71
2022/04/02 11:48:51;;;;;;;23.67;12.80;;;;;;;;;;5073421;28;20476;-71
2022/04/02 11:51:20;;;;;;;15.33;11.50;;;;;;;;;;5073490;28;20973;-72
2022/04/02 11:53:47;;;;;;;17.93;12.00;;;;;;;;;;5072681;28;20868;-74
2022/04/02 11:56:24;;;;;;;14.20;11.10;;;;;;;;;;5092058;28;20526;-71
2022/04/02 11:58:54;;;;;;;14.93;12.20;;;;;;;;;;5093412;28;20474;-71
2022/04/02 12:01:22;;;;;;;16.87;11.63;;;;;;;;;;5090365;28;20943;-72
2022/04/02 12:04:06;;;;;;;16.43;11.17;;;;;;;;;;5086262;28;20463;-71
2022/04/02 12:06:35;;;;;;;15.13;11.00;;;;;;;;;;5081854;28;20455;-71
2022/04/02 12:09:10;;;;;;;15.97;10.27;;;;;;;;;;5084711;28;20819;-71
2022/04/02 12:11:37;;;;;;;18.87;11.50;;;;;;;;;;5083768;28;20458;-71
2022/04/02 12:14:06;;;;;;;18.10;11.43;;;;;;;;;;5082420;28;20819;-71
2022/04/02 12:16:34;;;;;;;19.87;11.70;;;;;;;;;;5081702;28;20505;-72
2022/04/02 12:19:03;;;;;;;15.73;11.20;;;;;;;;;;5081546;28;20460;-70
2022/04/02 12:21:33;;;;;;;18.53;13.33;;;;;;;;;;5084302;28;20446;-71
2022/04/02 12:24:01;;;;;;;16.60;11.10;;;;;;;;;;5092644;28;20975;-70
2022/04/02 12:26:28;;;;;;;22.90;11.07;;;;;;;;;;5093026;28;20462;-70
2022/04/02 12:28:57;;;;;;;25.03;14.13;;;;;;;;;;5092957;28;20512;-70
2022/04/02 12:31:27;;;;;;;18.40;13.40;;;;;;;;;;5093165;28;20451;-70
2022/04/02 12:33:54;;;;;;;21.37;11.40;;;;;;;;;;5092074;28;20469;-71
2022/04/02 12:36:30;;;;;;;25.83;12.10;;;;;;;;;;5093189;28;20443;-74
2022/04/02 12:39:00;;;;;;;16.70;11.40;;;;;;;;;;5092957;28;20990;-71
2022/04/02 12:41:28;;;;;;;16.13;12.37;;;;;;;;;;5093053;28;20450;-71
2022/04/02 12:43:59;;;;;;;20.27;11.77;;;;;;;;;;5092871;28;20451;-71
2022/04/02 12:46:29;;;;;;;17.63;10.83;;;;;;;;;;5093149;28;20858;-71
2022/04/02 12:48:56;;;;;;;15.80;11.07;;;;;;;;;;5093130;28;20466;-71
2022/04/02 12:51:24;;;;;;;17.63;10.80;;;;;;;;;;5092868;28;20459;-71
2022/04/02 12:53:58;;;;;;;16.43;11.40;;;;;;;;;;5088270;28;20484;-73
2022/04/02 12:56:26;;;;;;;17.70;11.37;;;;;;;;;;5091947;28;21025;-71
2022/04/02 12:58:54;;;;;;;17.03;10.53;;;;;;;;;;5092500;28;20475;-71
2022/04/02 13:01:29;;;;;;;18.10;12.50;;;;;;;;;;5093158;28;20482;-72
2022/04/02 13:04:08;;;;;;;15.67;10.50;;;;;;;;;;5092884;28;20815;-72
2022/04/02 13:06:35;;;;;;;15.90;9.97;;;;;;;;;;5076188;28;20456;-72
2022/04/02 13:09:04;;;;;;;18.50;12.40;;;;;;;;;;5070115;28;20468;-71
2022/04/02 13:11:55;;;;;;;22.07;13.00;;;;;;;;;;5071321;28;20447;-71
2022/04/02 13:14:23;;;;;;;18.10;12.20;;;;;;;;;;5070111;28;20941;-72
2022/04/02 13:16:52;;;;;;;17.03;10.50;;;;;;;;;;5070300;28;20444;-74
2022/04/02 13:22:06;;;;;;;20.13;12.90;;;;;;;;;;5070386;28;20447;-74
2022/04/02 13:24:35;;;;;;;15.23;11.37;;;;;;;;;;5070557;28;20456;-73
2022/04/02 13:27:26;;;;;;;18.33;12.73;;;;;;;;;;5070691;28;20549;-70
2022/04/02 13:30:12;;;;;;;23.70;12.17;;;;;;;;;;5070533;28;20811;-73
2022/04/02 13:32:58;;;;;;;18.60;13.20;;;;;;;;;;5070385;28;20796;-72
2022/04/02 13:35:33;;;;;;;14.67;10.83;;;;;;;;;;5070063;28;20455;-72
2022/04/02 13:38:05;;;;;;;16.47;11.73;;;;;;;;;;5070495;28;20467;-72
2022/04/02 13:40:37;;;;;;;20.33;13.17;;;;;;;;;;5070757;28;20495;-70
2022/04/02 13:43:06;;;;;;;15.80;12.17;;;;;;;;;;5070257;28;20472;-72
2022/04/02 13:45:37;;;;;;;17.10;11.50;;;;;;;;;;5070752;28;20464;-72
2022/04/02 13:48:06;;;;;;;14.47;10.90;;;;;;;;;;5074303;28;20996;-71
2022/04/02 13:50:37;;;;;;;14.43;11.10;;;;;;;;;;5074139;28;20481;-72
2022/04/02 13:53:05;;;;;;;12.33;9.00;;;;;;;;;;5072735;28;20454;-71
2022/04/02 13:55:33;;;;;;;12.37;9.70;;;;;;;;;;5073920;28;20462;-72
2022/04/02 13:58:04;;;;;;;10.40;8.10;;;;;;;;;;5073638;28;20525;-71
2022/04/02 14:00:35;;;;;;;13.93;9.90;;;;;;;;;;5073674;28;20495;-74
2022/04/02 14:03:05;;;;;;;15.03;10.73;;;;;;;;;;5074129;28;20814;-71
2022/04/02 14:05:37;;;;;;;19.90;10.40;;;;;;;;;;5073397;28;20443;-71
2022/04/02 14:08:07;;;;;;;18.37;11.60;;;;;;;;;;5074120;28;20483;-71
2022/04/02 14:10:40;;;;;;;13.13;9.57;;;;;;;;;;5074319;28;20448;-72
2022/04/02 14:13:18;;;;;;;15.00;9.90;;;;;;;;;;5076662;28;20882;-71
2022/04/02 14:15:53;;;;;;;16.90;10.40;;;;;;;;;;5076055;28;20466;-72
2022/04/02 14:18:22;;;;;;;16.83;11.70;;;;;;;;;;5074225;28;20552;-72
2022/04/02 14:20:51;;;;;;;13.70;11.70;;;;;;;;;;5074415;28;20487;-72
2022/04/02 14:23:23;;;;;;;19.73;14.03;;;;;;;;;;5074055;28;20466;-71
2022/04/02 14:26:13;;;;;;;17.97;11.87;;;;;;;;;;5074358;28;20447;-72
2022/04/02 14:28:46;;;;;;;10.90;9.00;;;;;;;;;;5074021;28;20478;-72
2022/04/02 14:31:37;;;;;;;14.23;11.40;;;;;;;;;;5074974;28;20443;-71
2022/04/02 14:34:19;;;;;;;18.50;10.90;;;;;;;;;;5074847;28;20452;-71
2022/04/02 14:37:00;;;;;;;14.90;10.90;;;;;;;;;;5072479;28;20851;-71
2022/04/02 14:39:48;;;;;;;22.70;14.00;;;;;;;;;;5074579;28;20459;-71